Terminal Aerodrome Forecast
Issued by NWS

Home | Current Version | Previous Version | Text Only | Print | Product List | Glossary On
Versions: 1 2 3 4 5 6 7 8 9 10 11 12
268
FTUS44 KTSA 251737
TAFRVS
TAF
KRVS 251737Z 2518/2618 17011KT P6SM SCT050 SCT250
     FM260100 14004KT P6SM SCT045 BKN200
     FM260600 VRB03KT P6SM VCSH SCT040 BKN150
     FM260900 01005KT P6SM VCSH SCT015 BKN050 OVC100
     FM261500 VRB06KT P6SM -RA SCT020 BKN035=

USA.gov is the U.S. government's official web portal to all federal, state and local government web resources and services.